createdAt,value
2016-08-26T00:00:51.691Z,63.94
2016-08-26T00:01:53.546Z,63.90
2016-08-26T00:02:51.663Z,64.00
2016-08-26T00:03:52.324Z,63.93
2016-08-26T00:04:45.817Z,64.00
2016-08-26T00:06:01.908Z,64.00
2016-08-26T00:06:46.324Z,63.95
2016-08-26T00:07:45.587Z,64.03
2016-08-26T00:08:52.244Z,63.96
2016-08-26T00:09:40.946Z,64.02
2016-08-26T00:11:51.460Z,64.03
2016-08-26T00:12:50.831Z,64.03
2016-08-26T00:13:00.863Z,64.07
2016-08-26T00:13:37.916Z,64.02
2016-08-26T00:14:51.039Z,64.03
2016-08-26T00:15:45.681Z,64.06
2016-08-26T00:16:48.963Z,63.99
2016-08-26T00:18:06.528Z,64.08
2016-08-26T00:18:44.719Z,64.05
2016-08-26T00:19:45.548Z,64.02
2016-08-26T00:20:44.021Z,64.12
2016-08-26T00:21:43.979Z,64.05
2016-08-26T00:22:32.067Z,64.06
2016-08-26T00:23:44.352Z,64.08
2016-08-26T00:24:46.334Z,64.04
2016-08-26T00:25:55.571Z,64.13
2016-08-26T00:26:51.285Z,64.08
2016-08-26T00:27:41.169Z,64.06
2016-08-26T00:29:00.606Z,64.15
2016-08-26T00:29:38.986Z,64.16
2016-08-26T00:30:50.855Z,64.15
2016-08-26T00:31:57.839Z,64.10
2016-08-26T00:32:45.459Z,64.08
2016-08-26T00:33:43.281Z,64.10
2016-08-26T00:34:57.455Z,64.18
2016-08-26T00:35:57.345Z,64.16
2016-08-26T00:37:00.814Z,64.20
2016-08-26T00:37:49.496Z,64.11
2016-08-26T00:39:11.201Z,64.21
2016-08-26T00:39:50.399Z,64.16
2016-08-26T00:40:45.636Z,64.15
2016-08-26T00:42:01.293Z,64.13
2016-08-26T00:43:06.744Z,64.24
2016-08-26T00:43:50.663Z,64.15
2016-08-26T00:45:28.174Z,64.22
2016-08-26T00:45:45.094Z,64.15
2016-08-26T00:46:43.971Z,64.28
2016-08-26T00:47:50.904Z,64.16
2016-08-26T00:48:51.568Z,64.17
2016-08-26T00:49:50.904Z,64.28
2016-08-26T00:50:46.358Z,64.17
2016-08-26T00:51:49.883Z,64.25
2016-08-26T00:52:46.019Z,64.15
2016-08-26T00:53:44.527Z,64.17
2016-08-26T00:55:01.566Z,64.24
2016-08-26T00:55:51.356Z,64.23
2016-08-26T00:56:48.917Z,64.14
2016-08-26T00:57:39.649Z,64.28
2016-08-26T00:58:51.277Z,64.23
2016-08-26T00:59:50.339Z,64.24
2016-08-26T01:00:53.271Z,64.12
2016-08-26T01:01:46.476Z,64.24
2016-08-26T01:03:19.248Z,64.22
2016-08-26T01:03:59.164Z,64.15
2016-08-26T01:04:49.798Z,64.21
2016-08-26T01:05:51.276Z,64.19
2016-08-26T01:06:48.368Z,64.17
2016-08-26T01:07:55.626Z,64.26
2016-08-26T01:09:00.992Z,64.21
2016-08-26T01:09:54.576Z,64.22
2016-08-26T01:10:52.179Z,64.21
2016-08-26T01:11:56.581Z,64.17
2016-08-26T01:13:01.536Z,64.22
2016-08-26T01:13:56.362Z,64.20
2016-08-26T01:14:51.783Z,64.27
2016-08-26T01:15:46.507Z,64.24
2016-08-26T01:17:13.582Z,64.23
2016-08-26T01:17:56.497Z,64.15
2016-08-26T01:18:49.709Z,64.29
2016-08-26T01:19:45.517Z,64.26
2016-08-26T01:20:49.543Z,64.21
2016-08-26T01:21:50.518Z,64.28
2016-08-26T01:22:51.275Z,64.27
2016-08-26T01:23:57.478Z,64.25
2016-08-26T01:25:01.660Z,64.25
2016-08-26T01:25:43.367Z,64.23
2016-08-26T01:27:03.861Z,64.28
2016-08-26T01:27:42.928Z,64.34
2016-08-26T01:28:48.193Z,64.30
2016-08-26T01:29:44.171Z,63.58
2016-08-26T01:30:45.121Z,64.09
2016-08-26T01:31:43.064Z,64.15
2016-08-26T01:33:00.056Z,64.18
2016-08-26T01:33:58.880Z,64.18
2016-08-26T01:34:57.449Z,64.28
2016-08-26T01:35:54.243Z,64.15
2016-08-26T01:36:40.121Z,64.25
2016-08-26T01:37:57.208Z,64.16
2016-08-26T01:38:47.924Z,64.24
2016-08-26T01:40:04.295Z,64.06
2016-08-26T01:40:47.672Z,64.13
2016-08-26T01:42:06.976Z,64.29
2016-08-26T01:42:48.593Z,64.10
2016-08-26T01:44:06.251Z,64.16
2016-08-26T01:44:54.336Z,64.02
2016-08-26T01:46:10.037Z,63.95
2016-08-26T01:46:58.246Z,63.76
2016-08-26T01:47:50.295Z,63.76
2016-08-26T01:49:10.673Z,63.65
2016-08-26T01:49:52.076Z,63.63
2016-08-26T01:51:02.952Z,63.48
2016-08-26T01:51:49.881Z,63.55
2016-08-26T01:52:50.861Z,63.41
2016-08-26T01:54:03.647Z,63.63
2016-08-26T01:54:47.336Z,63.52
2016-08-26T01:55:52.055Z,63.50
2016-08-26T01:57:00.158Z,63.42
2016-08-26T01:57:51.335Z,63.39
2016-08-26T01:58:46.013Z,63.36
2016-08-26T01:59:49.929Z,63.31
2016-08-26T02:00:53.566Z,63.49
2016-08-26T02:01:51.361Z,63.33
2016-08-26T02:02:51.485Z,63.43
2016-08-26T02:03:48.694Z,63.47
2016-08-26T02:04:40.156Z,63.62
2016-08-26T02:05:51.243Z,63.32
2016-08-26T02:06:49.815Z,63.33
2016-08-26T02:07:51.269Z,63.45
2016-08-26T02:08:45.456Z,63.19
2016-08-26T02:09:52.113Z,63.36
2016-08-26T02:10:54.180Z,63.20
2016-08-26T02:11:36.897Z,63.39
2016-08-26T02:12:47.995Z,63.41
2016-08-26T02:13:42.174Z,63.33
2016-08-26T02:14:42.139Z,63.36
2016-08-26T02:16:19.335Z,63.27
2016-08-26T02:16:55.215Z,63.47
2016-08-26T02:17:54.695Z,63.27
2016-08-26T02:18:43.257Z,63.65
2016-08-26T02:19:46.265Z,63.32
2016-08-26T02:20:50.017Z,63.42
2016-08-26T02:21:49.768Z,63.31
2016-08-26T02:22:51.547Z,63.23
2016-08-26T02:23:37.065Z,63.28
2016-08-26T02:24:44.556Z,63.25
2016-08-26T02:25:50.381Z,63.47
2016-08-26T02:26:45.509Z,63.47
2016-08-26T02:27:51.304Z,63.76
2016-08-26T02:28:50.554Z,62.71
2016-08-26T02:29:57.390Z,62.50
2016-08-26T02:30:56.882Z,62.38
2016-08-26T02:31:45.455Z,62.59
2016-08-26T02:32:54.353Z,63.50
2016-08-26T02:33:55.130Z,63.76
2016-08-26T02:34:42.709Z,63.94
2016-08-26T02:35:39.979Z,63.96
2016-08-26T02:36:47.859Z,64.00
2016-08-26T02:37:46.241Z,64.06
2016-08-26T02:38:54.455Z,64.06
2016-08-26T02:39:46.103Z,64.07
2016-08-26T02:40:43.746Z,64.15
2016-08-26T02:41:42.238Z,64.12
2016-08-26T02:42:36.978Z,63.93
2016-08-26T02:43:40.034Z,63.55
2016-08-26T02:44:33.860Z,63.47
2016-08-26T02:45:51.496Z,62.68
2016-08-26T02:47:00.796Z,62.28
2016-08-26T02:48:08.237Z,62.18
2016-08-26T02:48:56.932Z,62.82
2016-08-26T02:49:40.340Z,62.93
2016-08-26T02:50:45.918Z,63.19
2016-08-26T02:51:36.539Z,62.96
2016-08-26T02:52:39.916Z,62.85
2016-08-26T02:53:44.412Z,62.89
2016-08-26T02:54:33.162Z,63.03
2016-08-26T02:55:42.340Z,63.03
2016-08-26T02:56:13.653Z,62.73
2016-08-26T02:57:38.090Z,63.07
2016-08-26T02:58:42.515Z,63.02
2016-08-26T02:59:44.073Z,62.83
2016-08-26T03:00:48.369Z,63.00
2016-08-26T03:01:46.276Z,62.71
2016-08-26T03:02:46.479Z,62.62
2016-08-26T03:03:33.624Z,63.07
2016-08-26T03:04:35.255Z,63.11
2016-08-26T03:05:52.266Z,62.70
2016-08-26T03:06:44.356Z,62.29
2016-08-26T03:07:39.795Z,61.57
2016-08-26T03:08:56.424Z,61.53
2016-08-26T03:09:54.558Z,61.52
2016-08-26T03:10:59.676Z,61.14
2016-08-26T03:11:44.391Z,61.17
2016-08-26T03:12:45.294Z,61.75
2016-08-26T03:13:56.628Z,62.11
2016-08-26T03:15:11.161Z,62.45
2016-08-26T03:15:47.695Z,62.41
2016-08-26T03:16:41.339Z,62.62
2016-08-26T03:17:37.104Z,62.21
2016-08-26T03:18:36.437Z,62.55
2016-08-26T03:19:44.371Z,62.21
2016-08-26T03:20:44.204Z,62.25
2016-08-26T03:21:43.938Z,62.18
2016-08-26T03:22:44.711Z,61.23
2016-08-26T03:23:49.066Z,61.05
2016-08-26T03:24:34.583Z,61.95
2016-08-26T03:25:41.826Z,62.31
2016-08-26T03:26:45.459Z,62.08
2016-08-26T03:27:35.892Z,62.37
2016-08-26T03:28:43.625Z,62.09
2016-08-26T03:29:45.156Z,62.08
2016-08-26T03:30:37.558Z,62.25
2016-08-26T03:31:36.045Z,62.47
2016-08-26T03:32:42.290Z,62.01
2016-08-26T03:33:38.208Z,61.92
2016-08-26T03:34:54.717Z,62.28
2016-08-26T03:35:38.277Z,62.13
2016-08-26T03:36:50.410Z,61.90
2016-08-26T03:37:39.602Z,62.10
2016-08-26T03:38:46.469Z,62.20
2016-08-26T03:39:45.312Z,61.89
2016-08-26T03:40:44.141Z,61.94
2016-08-26T03:41:31.554Z,62.01
2016-08-26T03:43:03.589Z,61.82
2016-08-26T03:43:39.593Z,62.48
2016-08-26T03:44:54.916Z,62.46
2016-08-26T03:46:04.458Z,61.82
2016-08-26T03:46:48.576Z,61.99
2016-08-26T03:47:48.649Z,61.72
2016-08-26T03:48:39.341Z,61.04
2016-08-26T03:49:40.242Z,60.15
2016-08-26T03:50:43.626Z,60.26
2016-08-26T03:51:51.558Z,60.15
2016-08-26T03:52:48.748Z,60.02
2016-08-26T03:53:45.829Z,60.03
2016-08-26T03:54:51.616Z,60.91
2016-08-26T03:55:51.731Z,61.21
2016-08-26T03:56:51.521Z,61.22
2016-08-26T03:57:40.646Z,61.05
2016-08-26T03:58:51.626Z,61.54
2016-08-26T03:59:54.050Z,61.24
2016-08-26T04:00:50.689Z,61.28
2016-08-26T04:01:45.867Z,61.19
2016-08-26T04:02:58.169Z,61.29
2016-08-26T04:03:45.182Z,61.69
2016-08-26T04:04:43.546Z,61.34
2016-08-26T04:05:48.079Z,61.01
2016-08-26T04:06:45.746Z,61.24
2016-08-26T04:07:45.793Z,60.98
2016-08-26T04:09:01.649Z,61.25
2016-08-26T04:09:50.304Z,61.06
2016-08-26T04:10:51.117Z,61.39
2016-08-26T04:11:50.984Z,61.17
2016-08-26T04:12:49.603Z,61.33
2016-08-26T04:13:57.927Z,60.98
2016-08-26T04:14:44.428Z,61.13
2016-08-26T04:15:59.221Z,61.06
2016-08-26T04:17:24.935Z,60.93
2016-08-26T04:17:47.518Z,61.26
2016-08-26T04:18:46.202Z,60.87
2016-08-26T04:19:49.076Z,60.85
2016-08-26T04:21:11.797Z,61.03
2016-08-26T04:22:07.107Z,60.71
2016-08-26T04:22:51.062Z,60.95
2016-08-26T04:24:00.031Z,60.76
2016-08-26T04:24:49.780Z,60.67
2016-08-26T04:26:00.567Z,61.07
2016-08-26T04:26:58.657Z,60.66
2016-08-26T04:28:30.071Z,60.57
2016-08-26T04:28:59.392Z,61.03
2016-08-26T04:29:45.199Z,60.68
2016-08-26T04:30:45.994Z,60.83
2016-08-26T04:31:51.245Z,60.71
2016-08-26T04:32:45.511Z,60.38
2016-08-26T04:33:49.285Z,60.93
2016-08-26T04:34:51.083Z,60.44
2016-08-26T04:35:46.891Z,60.21
2016-08-26T04:36:51.019Z,60.30
2016-08-26T04:37:51.557Z,60.45
2016-08-26T04:38:56.184Z,60.46
2016-08-26T04:39:44.472Z,60.54
2016-08-26T04:40:55.656Z,60.19
2016-08-26T04:41:51.653Z,60.67
2016-08-26T04:42:55.253Z,60.51
2016-08-26T04:43:50.953Z,60.33
2016-08-26T04:44:55.369Z,60.55
2016-08-26T04:45:56.781Z,60.67
2016-08-26T04:46:49.107Z,60.40
2016-08-26T04:48:00.688Z,60.81
2016-08-26T04:49:28.564Z,60.46
2016-08-26T04:49:40.047Z,60.91
2016-08-26T04:51:00.804Z,60.40
2016-08-26T04:51:54.073Z,60.45
2016-08-26T04:53:01.043Z,60.47
2016-08-26T04:54:02.843Z,60.37
2016-08-26T04:54:52.550Z,60.47
2016-08-26T04:55:46.004Z,60.48
2016-08-26T04:56:51.333Z,60.37
2016-08-26T04:57:47.315Z,60.57
2016-08-26T04:59:01.657Z,60.34
2016-08-26T05:00:31.417Z,60.52
2016-08-26T05:00:47.880Z,61.10
2016-08-26T05:01:38.575Z,60.39
2016-08-26T05:02:58.973Z,61.16
2016-08-26T05:03:45.675Z,60.86
2016-08-26T05:04:54.378Z,60.71
2016-08-26T05:05:51.536Z,60.72
2016-08-26T05:06:59.699Z,60.75
2016-08-26T05:08:02.274Z,60.69
2016-08-26T05:09:01.461Z,60.71
2016-08-26T05:09:51.600Z,60.53
2016-08-26T05:10:45.641Z,60.81
2016-08-26T05:11:45.298Z,61.05
2016-08-26T05:13:00.696Z,60.68
2016-08-26T05:14:05.935Z,60.94
2016-08-26T05:14:57.872Z,60.97
2016-08-26T05:15:54.141Z,61.50
2016-08-26T05:16:57.301Z,61.36
2016-08-26T05:17:42.532Z,61.55
2016-08-26T05:18:46.685Z,61.54
2016-08-26T05:20:04.746Z,61.41
2016-08-26T05:20:46.805Z,61.88
2016-08-26T05:22:03.804Z,61.99
2016-08-26T05:22:53.555Z,62.02
2016-08-26T05:23:48.866Z,61.98
2016-08-26T05:24:51.017Z,61.46
2016-08-26T05:25:59.868Z,61.48
2016-08-26T05:26:46.097Z,61.57
2016-08-26T05:27:56.639Z,61.47
2016-08-26T05:28:46.993Z,61.42
2016-08-26T05:29:55.111Z,61.27
2016-08-26T05:31:00.899Z,61.53
2016-08-26T05:32:01.452Z,61.75
2016-08-26T05:32:51.922Z,61.60
2016-08-26T05:33:43.127Z,61.60
2016-08-26T05:34:49.897Z,61.95
2016-08-26T05:35:51.671Z,61.84
2016-08-26T05:37:04.226Z,61.98
2016-08-26T05:37:54.307Z,62.35
2016-08-26T05:38:57.312Z,62.56
2016-08-26T05:40:24.562Z,62.26
2016-08-26T05:40:51.720Z,61.98
2016-08-26T05:41:49.915Z,61.87
2016-08-26T05:43:08.123Z,61.82
2016-08-26T05:44:03.875Z,61.47
2016-08-26T05:45:00.441Z,61.88
2016-08-26T05:46:02.668Z,61.73
2016-08-26T05:46:44.937Z,61.67
2016-08-26T05:47:56.087Z,61.78
2016-08-26T05:48:51.036Z,61.84
2016-08-26T05:50:07.012Z,61.86
2016-08-26T05:50:46.570Z,61.77
2016-08-26T05:51:46.415Z,61.93
2016-08-26T05:52:43.789Z,62.18
2016-08-26T05:54:01.554Z,61.88
2016-08-26T05:54:55.583Z,62.23
2016-08-26T05:55:39.412Z,62.00
2016-08-26T05:57:03.802Z,62.18
2016-08-26T05:58:00.241Z,62.34
2016-08-26T05:58:51.125Z,62.24
2016-08-26T05:59:57.572Z,62.34
2016-08-26T06:00:52.171Z,62.09
2016-08-26T06:01:41.182Z,62.16
2016-08-26T06:02:46.150Z,62.06
2016-08-26T06:04:06.529Z,62.08
2016-08-26T06:04:51.755Z,62.05
2016-08-26T06:05:55.188Z,62.22
2016-08-26T06:06:51.218Z,62.30
2016-08-26T06:07:47.194Z,61.98
2016-08-26T06:08:57.883Z,61.92
2016-08-26T06:09:51.839Z,62.04
2016-08-26T06:11:00.534Z,62.06
2016-08-26T06:11:45.682Z,62.41
2016-08-26T06:12:52.723Z,62.82
2016-08-26T06:13:54.307Z,62.83
2016-08-26T06:15:06.141Z,62.77
2016-08-26T06:16:16.601Z,62.71
2016-08-26T06:16:52.969Z,62.74
2016-08-26T06:18:00.315Z,62.68
2016-08-26T06:19:17.258Z,62.76
2016-08-26T06:19:57.227Z,62.67
2016-08-26T06:20:48.624Z,62.66
2016-08-26T06:21:45.762Z,62.70
2016-08-26T06:23:35.080Z,62.68
2016-08-26T06:23:57.973Z,62.63
2016-08-26T06:24:39.954Z,62.61
2016-08-26T06:25:48.202Z,62.67
2016-08-26T06:27:17.807Z,62.71
2016-08-26T06:28:01.563Z,62.80
2016-08-26T06:28:48.522Z,62.77
2016-08-26T06:29:55.545Z,62.81
2016-08-26T06:31:06.053Z,62.86
2016-08-26T06:31:57.407Z,62.84
2016-08-26T06:32:52.201Z,62.99
2016-08-26T06:34:06.632Z,62.97
2016-08-26T06:34:47.026Z,62.85
2016-08-26T06:35:58.731Z,62.88
2016-08-26T06:36:45.584Z,62.94
2016-08-26T06:38:12.720Z,62.95
2016-08-26T06:38:39.696Z,62.99
2016-08-26T06:39:50.947Z,62.97
2016-08-26T06:41:01.860Z,62.97
2016-08-26T06:42:46.048Z,62.96
2016-08-26T06:42:57.579Z,63.02
2016-08-26T06:44:13.897Z,63.07
2016-08-26T06:44:51.587Z,63.06
2016-08-26T06:45:40.205Z,62.98
2016-08-26T06:46:41.285Z,62.98
2016-08-26T06:47:44.202Z,63.30
2016-08-26T06:48:43.441Z,62.81
2016-08-26T06:49:38.242Z,62.48
2016-08-26T06:50:54.515Z,62.16
2016-08-26T06:51:56.516Z,62.59
2016-08-26T06:52:45.495Z,62.82
2016-08-26T06:53:57.724Z,62.62
2016-08-26T06:54:51.208Z,62.66
2016-08-26T06:55:51.082Z,62.97
2016-08-26T06:56:47.232Z,63.02
2016-08-26T06:57:39.938Z,63.56
2016-08-26T06:59:02.923Z,63.40
2016-08-26T06:59:50.195Z,63.31
2016-08-26T07:00:46.529Z,63.36
2016-08-26T07:01:49.040Z,63.80
2016-08-26T07:02:43.425Z,63.87
2016-08-26T07:03:45.236Z,64.07
2016-08-26T07:04:49.623Z,63.71
2016-08-26T07:05:46.448Z,63.97
2016-08-26T07:06:51.596Z,63.68
2016-08-26T07:07:51.587Z,63.81
2016-08-26T07:09:01.637Z,63.72
2016-08-26T07:09:40.722Z,63.80
2016-08-26T07:10:45.440Z,63.89
2016-08-26T07:11:45.135Z,64.10
2016-08-26T07:12:48.546Z,64.02
2016-08-26T07:13:44.534Z,63.83
2016-08-26T07:14:47.588Z,63.89
2016-08-26T07:15:46.081Z,63.96
2016-08-26T07:17:04.619Z,63.85
2016-08-26T07:17:44.934Z,63.97
2016-08-26T07:18:45.282Z,63.98
2016-08-26T07:19:57.615Z,63.96
2016-08-26T07:20:58.829Z,63.89
2016-08-26T07:21:50.993Z,64.01
2016-08-26T07:22:55.963Z,64.03
2016-08-26T07:23:37.597Z,64.01
2016-08-26T07:24:48.988Z,64.02
2016-08-26T07:25:48.845Z,64.03
2016-08-26T07:26:47.070Z,64.07
2016-08-26T07:27:48.140Z,64.09
2016-08-26T07:28:51.104Z,64.07
2016-08-26T07:29:47.764Z,64.06
2016-08-26T07:30:29.478Z,64.08
2016-08-26T07:31:37.322Z,64.08
2016-08-26T07:32:45.393Z,64.07
2016-08-26T07:33:51.281Z,64.07
2016-08-26T07:35:04.119Z,64.06
2016-08-26T07:35:59.329Z,64.03
2016-08-26T07:37:03.211Z,64.03
2016-08-26T07:37:57.861Z,64.03
2016-08-26T07:38:46.262Z,64.01
2016-08-26T07:39:51.537Z,64.01
2016-08-26T07:40:53.136Z,63.99
2016-08-26T07:41:49.685Z,64.03
2016-08-26T07:42:50.870Z,64.02
2016-08-26T07:43:46.489Z,64.01
2016-08-26T07:44:50.706Z,64.01
2016-08-26T07:45:54.426Z,63.99
2016-08-26T07:46:55.601Z,63.99
2016-08-26T07:47:51.361Z,63.99
2016-08-26T07:48:55.780Z,63.99
2016-08-26T07:49:51.581Z,64.00
2016-08-26T07:50:50.816Z,64.00
2016-08-26T07:51:45.538Z,64.00
2016-08-26T07:52:45.618Z,63.97
2016-08-26T07:53:51.931Z,63.96
2016-08-26T07:54:54.759Z,63.94
2016-08-26T07:55:46.208Z,63.96
2016-08-26T07:56:44.615Z,63.94
2016-08-26T07:57:50.140Z,63.93
2016-08-26T07:58:39.617Z,63.94
2016-08-26T07:59:45.946Z,63.94
2016-08-26T08:01:50.639Z,63.91
2016-08-26T08:02:04.221Z,63.92
2016-08-26T08:02:51.185Z,63.92
2016-08-26T08:03:51.622Z,63.92
2016-08-26T08:04:39.986Z,63.94
2016-08-26T08:05:45.721Z,63.90
2016-08-26T08:06:45.749Z,63.92
2016-08-26T08:07:45.678Z,63.89
2016-08-26T08:08:51.167Z,63.90
2016-08-26T08:09:34.106Z,63.89
2016-08-26T08:10:45.213Z,63.91
2016-08-26T08:11:44.512Z,63.88
2016-08-26T08:12:51.542Z,63.89
2016-08-26T08:13:55.726Z,63.90
2016-08-26T08:14:49.369Z,63.87
2016-08-26T08:16:03.561Z,63.88
2016-08-26T08:16:52.752Z,63.88
2016-08-26T08:17:46.182Z,63.87
2016-08-26T08:18:48.587Z,63.85
2016-08-26T08:19:49.644Z,63.86
2016-08-26T08:20:56.039Z,63.87
2016-08-26T08:21:49.027Z,63.86
2016-08-26T08:22:57.954Z,63.85
2016-08-26T08:23:50.707Z,63.87
2016-08-26T08:24:51.534Z,63.85
2016-08-26T08:26:00.958Z,63.86
2016-08-26T08:26:49.813Z,63.85
2016-08-26T08:27:52.183Z,63.84
2016-08-26T08:28:57.932Z,63.83
2016-08-26T08:29:49.275Z,63.83
2016-08-26T08:30:56.034Z,63.83
2016-08-26T08:31:54.065Z,63.83
2016-08-26T08:32:45.324Z,63.82
2016-08-26T08:33:44.383Z,63.81
2016-08-26T08:34:54.475Z,63.81
2016-08-26T08:35:51.141Z,63.80
2016-08-26T08:36:50.396Z,63.84
2016-08-26T08:37:56.475Z,63.83
2016-08-26T08:38:51.929Z,63.84
2016-08-26T08:39:49.662Z,63.82
2016-08-26T08:40:51.095Z,63.82
2016-08-26T08:41:48.490Z,63.84
2016-08-26T08:42:53.976Z,63.83
2016-08-26T08:43:50.815Z,63.83
2016-08-26T08:44:46.743Z,63.85
2016-08-26T08:45:57.591Z,63.81
2016-08-26T08:46:51.189Z,63.83
2016-08-26T08:47:57.319Z,63.85
2016-08-26T08:48:53.136Z,63.84
2016-08-26T08:49:49.986Z,63.86
2016-08-26T08:50:50.190Z,63.85
2016-08-26T08:51:51.791Z,63.89
2016-08-26T08:52:45.718Z,63.93
2016-08-26T08:53:50.858Z,63.74
2016-08-26T08:55:08.880Z,62.88
2016-08-26T08:55:35.171Z,62.65
2016-08-26T08:56:37.703Z,63.58
2016-08-26T08:57:52.856Z,63.74
2016-08-26T08:58:47.653Z,63.82
2016-08-26T08:59:51.592Z,63.86
2016-08-26T09:00:52.832Z,63.91
2016-08-26T09:01:46.449Z,63.93
2016-08-26T09:02:49.812Z,63.94
2016-08-26T09:03:57.523Z,63.99
2016-08-26T09:04:44.098Z,64.00
2016-08-26T09:05:48.300Z,64.00
2016-08-26T09:06:48.850Z,63.99
2016-08-26T09:08:04.475Z,64.02
2016-08-26T09:08:53.750Z,64.02
2016-08-26T09:09:44.921Z,64.04
2016-08-26T09:10:55.807Z,64.07
2016-08-26T09:11:29.358Z,64.09
2016-08-26T09:12:42.152Z,64.10
2016-08-26T09:13:33.904Z,64.13
2016-08-26T09:14:51.708Z,64.14
2016-08-26T09:16:03.000Z,64.09
2016-08-26T09:17:03.192Z,64.15
2016-08-26T09:17:59.050Z,64.15
2016-08-26T09:18:28.568Z,64.17
2016-08-26T09:19:39.671Z,64.10
2016-08-26T09:20:46.089Z,64.15
2016-08-26T09:21:40.681Z,64.17
2016-08-26T09:22:19.846Z,64.16
2016-08-26T09:23:56.497Z,64.17
2016-08-26T09:24:54.657Z,64.24
2016-08-26T09:25:58.333Z,64.15
2016-08-26T09:26:49.963Z,64.17
2016-08-26T09:27:35.635Z,64.21
2016-08-26T09:28:45.089Z,64.23
2016-08-26T09:29:51.815Z,64.10
2016-08-26T09:30:51.651Z,63.31
2016-08-26T09:32:21.068Z,63.99
2016-08-26T09:32:54.812Z,64.14
2016-08-26T09:33:53.636Z,64.17
2016-08-26T09:34:57.324Z,64.27
2016-08-26T09:36:01.591Z,64.26
2016-08-26T09:36:57.700Z,64.19
2016-08-26T09:37:51.832Z,64.29
2016-08-26T09:38:50.447Z,64.31
2016-08-26T09:39:50.409Z,64.29
2016-08-26T09:41:01.592Z,64.26
2016-08-26T09:41:45.867Z,64.33
2016-08-26T09:42:45.548Z,64.35
2016-08-26T09:43:50.333Z,64.28
2016-08-26T09:44:46.432Z,64.34
2016-08-26T09:45:47.506Z,64.18
2016-08-26T09:46:51.720Z,63.42
2016-08-26T09:47:51.761Z,63.18
2016-08-26T09:48:58.613Z,63.07
2016-08-26T09:49:51.776Z,63.00
2016-08-26T09:50:44.257Z,62.95
2016-08-26T09:51:46.383Z,62.93
2016-08-26T09:52:52.019Z,63.09
2016-08-26T09:53:45.066Z,63.98
2016-08-26T09:54:55.415Z,64.15
2016-08-26T09:55:46.256Z,64.35
2016-08-26T09:57:00.427Z,64.35
2016-08-26T09:58:04.984Z,64.30
2016-08-26T09:58:38.855Z,64.43
2016-08-26T09:59:56.396Z,64.42
2016-08-26T10:00:56.269Z,64.48
2016-08-26T10:01:50.407Z,64.47
2016-08-26T10:02:51.163Z,64.44
2016-08-26T10:03:54.402Z,64.46
2016-08-26T10:04:45.597Z,64.48
2016-08-26T10:05:45.929Z,64.55
2016-08-26T10:06:50.704Z,64.51
2016-08-26T10:07:46.695Z,64.63
2016-08-26T10:08:47.086Z,64.50
2016-08-26T10:10:01.099Z,64.53
2016-08-26T10:10:55.129Z,64.58
2016-08-26T10:11:43.845Z,64.56
2016-08-26T10:12:51.478Z,64.52
2016-08-26T10:13:55.324Z,64.60
2016-08-26T10:14:50.541Z,64.52
2016-08-26T10:15:51.687Z,64.57
2016-08-26T10:16:45.964Z,64.56
2016-08-26T10:17:49.236Z,64.55
2016-08-26T10:19:01.448Z,64.55
2016-08-26T10:19:50.318Z,64.50
2016-08-26T10:20:46.107Z,64.63
2016-08-26T10:21:48.325Z,64.52
2016-08-26T10:22:49.071Z,64.59
2016-08-26T10:23:43.608Z,63.58
2016-08-26T10:24:51.104Z,63.26
2016-08-26T10:25:48.745Z,63.26
2016-08-26T10:26:41.386Z,63.20
2016-08-26T10:27:50.799Z,63.17
2016-08-26T10:28:56.541Z,63.10
2016-08-26T10:29:45.913Z,63.16
2016-08-26T10:30:50.864Z,63.47
2016-08-26T10:31:50.696Z,64.14
2016-08-26T10:32:52.323Z,64.29
2016-08-26T10:33:46.132Z,64.29
2016-08-26T10:34:51.184Z,64.49
2016-08-26T10:35:43.581Z,64.53
2016-08-26T10:36:44.590Z,64.60
2016-08-26T10:37:51.120Z,64.46
2016-08-26T10:39:00.602Z,64.66
2016-08-26T10:39:50.083Z,64.70
2016-08-26T10:40:51.319Z,64.63
2016-08-26T10:41:45.881Z,64.60
2016-08-26T10:42:53.646Z,64.60
2016-08-26T10:43:50.535Z,64.62
2016-08-26T10:44:38.766Z,64.64
2016-08-26T10:45:46.389Z,64.65
2016-08-26T10:46:56.094Z,64.59
2016-08-26T10:48:01.573Z,64.67
2016-08-26T10:48:44.459Z,64.66
2016-08-26T10:49:47.714Z,64.64
2016-08-26T10:50:41.846Z,64.64
2016-08-26T10:51:55.240Z,64.53
2016-08-26T10:52:49.912Z,64.60
2016-08-26T10:53:57.154Z,64.66
2016-08-26T10:54:43.962Z,64.66
2016-08-26T10:55:43.664Z,63.55
2016-08-26T10:56:56.578Z,63.35
2016-08-26T10:57:57.324Z,63.27
2016-08-26T10:59:01.002Z,63.17
2016-08-26T10:59:55.321Z,63.23
2016-08-26T11:00:40.632Z,63.16
2016-08-26T11:01:51.242Z,64.19
2016-08-26T11:02:45.324Z,64.33
2016-08-26T11:03:55.509Z,64.45
2016-08-26T11:04:47.293Z,64.56
2016-08-26T11:05:54.998Z,64.55
2016-08-26T11:06:44.677Z,64.53
2016-08-26T11:08:16.442Z,64.55
2016-08-26T11:08:50.376Z,64.48
2016-08-26T11:09:49.416Z,64.50
2016-08-26T11:10:46.091Z,64.55
2016-08-26T11:11:57.547Z,64.52
2016-08-26T11:12:51.372Z,64.58
2016-08-26T11:13:51.386Z,64.48
2016-08-26T11:14:51.686Z,64.43
2016-08-26T11:15:53.681Z,64.50
2016-08-26T11:16:51.735Z,64.36
2016-08-26T11:17:46.315Z,64.49
2016-08-26T11:19:03.181Z,64.58
2016-08-26T11:19:57.761Z,64.60
2016-08-26T11:20:44.726Z,64.49
2016-08-26T11:21:51.148Z,64.37
2016-08-26T11:22:50.035Z,64.40
2016-08-26T11:23:47.621Z,64.59
2016-08-26T11:24:57.226Z,64.48
2016-08-26T11:25:49.016Z,64.31
2016-08-26T11:26:50.763Z,64.41
2016-08-26T11:27:44.687Z,64.34
2016-08-26T11:28:41.542Z,64.55
2016-08-26T11:29:44.175Z,64.49
2016-08-26T11:30:54.495Z,64.47
2016-08-26T11:32:07.075Z,64.49
2016-08-26T11:32:57.022Z,64.36
2016-08-26T11:33:50.332Z,64.33
2016-08-26T11:34:47.176Z,64.35
2016-08-26T11:35:54.942Z,64.47
2016-08-26T11:36:45.178Z,64.32
2016-08-26T11:37:50.357Z,64.47
2016-08-26T11:38:50.819Z,64.30
2016-08-26T11:39:46.623Z,64.39
2016-08-26T11:41:07.074Z,64.42
2016-08-26T11:42:01.526Z,64.27
2016-08-26T11:42:44.390Z,64.19
2016-08-26T11:43:50.023Z,63.30
2016-08-26T11:44:50.363Z,63.07
2016-08-26T11:45:51.886Z,63.00
2016-08-26T11:46:45.401Z,62.88
2016-08-26T11:47:59.365Z,63.96
2016-08-26T11:48:46.061Z,64.34
2016-08-26T11:49:51.685Z,64.19
2016-08-26T11:50:51.015Z,64.22
2016-08-26T11:51:43.937Z,64.29
2016-08-26T11:52:36.908Z,64.17
2016-08-26T11:53:54.738Z,63.26
2016-08-26T11:54:46.790Z,63.03
2016-08-26T11:55:55.962Z,62.95
2016-08-26T11:56:43.439Z,62.92
2016-08-26T11:57:51.611Z,62.92
2016-08-26T11:58:51.517Z,62.84
2016-08-26T11:59:54.023Z,62.86
2016-08-26T12:00:50.307Z,62.89
2016-08-26T12:01:46.052Z,62.90
2016-08-26T12:02:54.357Z,62.75
2016-08-26T12:03:51.750Z,62.76
2016-08-26T12:04:52.270Z,63.05
2016-08-26T12:05:44.505Z,63.78
2016-08-26T12:06:40.868Z,64.01
2016-08-26T12:07:56.923Z,64.11
2016-08-26T12:08:54.792Z,64.16
2016-08-26T12:09:44.492Z,64.26
2016-08-26T12:10:51.124Z,64.29
2016-08-26T12:11:44.933Z,64.32
2016-08-26T12:12:40.829Z,64.30
2016-08-26T12:13:46.752Z,64.28
2016-08-26T12:15:06.322Z,64.26
2016-08-26T12:15:55.394Z,64.30
2016-08-26T12:16:50.766Z,64.26
2016-08-26T12:18:01.818Z,64.29
2016-08-26T12:18:48.627Z,64.32
2016-08-26T12:19:46.184Z,64.38
2016-08-26T12:20:50.105Z,64.32
2016-08-26T12:21:45.153Z,64.40
2016-08-26T12:22:50.391Z,64.47
2016-08-26T12:23:51.553Z,64.33
2016-08-26T12:24:55.603Z,64.41
2016-08-26T12:25:57.292Z,64.37
2016-08-26T12:27:01.672Z,64.32
2016-08-26T12:27:54.216Z,64.28
2016-08-26T12:28:48.812Z,64.36
2016-08-26T12:29:45.619Z,64.39
2016-08-26T12:30:51.675Z,64.42
2016-08-26T12:31:56.080Z,64.32
2016-08-26T12:32:51.507Z,64.44
2016-08-26T12:33:51.203Z,64.53
2016-08-26T12:34:57.363Z,64.39
2016-08-26T12:35:51.574Z,64.16
2016-08-26T12:37:15.254Z,63.41
2016-08-26T12:37:53.489Z,64.03
2016-08-26T12:38:48.457Z,64.27
2016-08-26T12:39:44.199Z,64.07
2016-08-26T12:40:55.845Z,63.29
2016-08-26T12:41:45.515Z,63.10
2016-08-26T12:42:46.800Z,63.38
2016-08-26T12:43:53.092Z,64.10
2016-08-26T12:44:50.720Z,64.18
2016-08-26T12:45:51.773Z,64.35
2016-08-26T12:46:52.944Z,64.33
2016-08-26T12:47:49.551Z,64.34
2016-08-26T12:48:44.438Z,63.35
2016-08-26T12:49:41.966Z,63.20
2016-08-26T12:50:53.283Z,64.04
2016-08-26T12:51:53.042Z,64.33
2016-08-26T12:52:45.531Z,64.35